sensor_id;sensor_type;location;lat;lon;timestamp;temperature;humidity
40077;DHT22;25777;47.824;18.982;2023-10-19T00:00:49;6.40;99.90
40077;DHT22;25777;47.824;18.982;2023-10-19T00:03:17;6.40;99.90
40077;DHT22;25777;47.824;18.982;2023-10-19T00:05:44;6.40;99.90
40077;DHT22;25777;47.824;18.982;2023-10-19T00:08:11;6.50;99.90
40077;DHT22;25777;47.824;18.982;2023-10-19T00:10:42;6.50;99.90
40077;DHT22;25777;47.824;18.982;2023-10-19T00:13:09;6.50;99.90
40077;DHT22;25777;47.824;18.982;2023-10-19T00:15:38;6.50;99.90
40077;DHT22;25777;47.824;18.982;2023-10-19T00:18:14;6.50;99.90
40077;DHT22;25777;47.824;18.982;2023-10-19T00:20:44;6.70;99.90
40077;DHT22;25777;47.824;18.982;2023-10-19T00:23:14;6.80;99.90
40077;DHT22;25777;47.824;18.982;2023-10-19T00:25:47;6.90;99.90
40077;DHT22;25777;47.824;18.982;2023-10-19T00:28:20;7.10;99.90
40077;DHT22;25777;47.824;18.982;2023-10-19T00:30:48;7.20;99.90
40077;DHT22;25777;47.824;18.982;2023-10-19T00:33:15;7.20;99.90
40077;DHT22;25777;47.824;18.982;2023-10-19T00:35:43;7.20;99.90
40077;DHT22;25777;47.824;18.982;2023-10-19T00:38:25;7.20;99.90
40077;DHT22;25777;47.824;18.982;2023-10-19T00:41:09;7.20;99.90
40077;DHT22;25777;47.824;18.982;2023-10-19T00:43:36;7.20;99.90
40077;DHT22;25777;47.824;18.982;2023-10-19T00:46:09;7.20;99.90
40077;DHT22;25777;47.824;18.982;2023-10-19T00:48:55;7.10;99.90
40077;DHT22;25777;47.824;18.982;2023-10-19T00:51:25;7.10;99.90
40077;DHT22;25777;47.824;18.982;2023-10-19T00:53:56;7.10;99.90
40077;DHT22;25777;47.824;18.982;2023-10-19T00:56:24;7.10;99.90
40077;DHT22;25777;47.824;18.982;2023-10-19T00:58:59;7.00;99.90
40077;DHT22;25777;47.824;18.982;2023-10-19T01:01:29;7.00;99.90
40077;DHT22;25777;47.824;18.982;2023-10-19T01:03:55;7.00;99.90
40077;DHT22;25777;47.824;18.982;2023-10-19T01:06:25;7.00;99.90
40077;DHT22;25777;47.824;18.982;2023-10-19T01:08:52;7.00;99.90
40077;DHT22;25777;47.824;18.982;2023-10-19T01:11:20;7.00;99.90
40077;DHT22;25777;47.824;18.982;2023-10-19T01:13:47;7.00;99.90
40077;DHT22;25777;47.824;18.982;2023-10-19T01:16:14;7.00;99.90
40077;DHT22;25777;47.824;18.982;2023-10-19T01:18:52;7.10;99.90
40077;DHT22;25777;47.824;18.982;2023-10-19T01:21:24;7.10;99.90
40077;DHT22;25777;47.824;18.982;2023-10-19T01:23:53;7.20;99.90
40077;DHT22;25777;47.824;18.982;2023-10-19T01:26:19;7.20;99.90
40077;DHT22;25777;47.824;18.982;2023-10-19T01:28:52;7.20;99.90
40077;DHT22;25777;47.824;18.982;2023-10-19T01:31:24;7.20;99.90
40077;DHT22;25777;47.824;18.982;2023-10-19T01:33:53;7.20;99.90
40077;DHT22;25777;47.824;18.982;2023-10-19T01:36:46;7.20;99.90
40077;DHT22;25777;47.824;18.982;2023-10-19T01:39:17;7.20;99.90
40077;DHT22;25777;47.824;18.982;2023-10-19T01:41:45;7.20;99.90
40077;DHT22;25777;47.824;18.982;2023-10-19T01:44:11;7.30;99.90
40077;DHT22;25777;47.824;18.982;2023-10-19T01:46:41;7.30;99.90
40077;DHT22;25777;47.824;18.982;2023-10-19T01:49:09;7.40;99.90
40077;DHT22;25777;47.824;18.982;2023-10-19T01:51:36;7.40;99.90
40077;DHT22;25777;47.824;18.982;2023-10-19T01:54:07;7.40;99.90
40077;DHT22;25777;47.824;18.982;2023-10-19T01:56:33;7.40;99.90
40077;DHT22;25777;47.824;18.982;2023-10-19T01:59:02;7.40;99.90
40077;DHT22;25777;47.824;18.982;2023-10-19T02:01:33;7.40;99.90
40077;DHT22;25777;47.824;18.982;2023-10-19T02:04:04;7.40;99.90
40077;DHT22;25777;47.824;18.982;2023-10-19T02:06:33;7.40;99.90
40077;DHT22;25777;47.824;18.982;2023-10-19T02:09:07;7.40;99.90
40077;DHT22;25777;47.824;18.982;2023-10-19T02:11:43;7.40;99.90
40077;DHT22;25777;47.824;18.982;2023-10-19T02:14:14;7.40;99.90
40077;DHT22;25777;47.824;18.982;2023-10-19T02:16:50;7.40;99.90
40077;DHT22;25777;47.824;18.982;2023-10-19T02:19:18;7.40;99.90
40077;DHT22;25777;47.824;18.982;2023-10-19T02:21:52;7.40;99.90
40077;DHT22;25777;47.824;18.982;2023-10-19T02:24:19;7.40;99.90
40077;DHT22;25777;47.824;18.982;2023-10-19T02:26:48;7.40;99.90
40077;DHT22;25777;47.824;18.982;2023-10-19T02:29:17;7.40;99.90
40077;DHT22;25777;47.824;18.982;2023-10-19T02:31:43;7.40;99.90
40077;DHT22;25777;47.824;18.982;2023-10-19T02:34:12;7.40;99.90
40077;DHT22;25777;47.824;18.982;2023-10-19T02:36:41;7.40;99.90
40077;DHT22;25777;47.824;18.982;2023-10-19T02:39:10;7.40;99.90
40077;DHT22;25777;47.824;18.982;2023-10-19T02:41:40;7.40;99.90
40077;DHT22;25777;47.824;18.982;2023-10-19T02:44:11;7.40;99.90
40077;DHT22;25777;47.824;18.982;2023-10-19T02:46:51;7.40;99.90
40077;DHT22;25777;47.824;18.982;2023-10-19T02:49:19;7.40;99.90
40077;DHT22;25777;47.824;18.982;2023-10-19T02:51:47;7.30;99.90
40077;DHT22;25777;47.824;18.982;2023-10-19T02:54:14;7.30;99.90
40077;DHT22;25777;47.824;18.982;2023-10-19T02:56:46;7.30;99.90
40077;DHT22;25777;47.824;18.982;2023-10-19T02:59:19;7.30;99.90
40077;DHT22;25777;47.824;18.982;2023-10-19T03:01:56;7.40;99.90
40077;DHT22;25777;47.824;18.982;2023-10-19T03:04:38;7.40;99.90
40077;DHT22;25777;47.824;18.982;2023-10-19T03:07:05;7.40;99.90
40077;DHT22;25777;47.824;18.982;2023-10-19T03:09:32;7.40;99.90
40077;DHT22;25777;47.824;18.982;2023-10-19T03:12:02;7.40;99.90
40077;DHT22;25777;47.824;18.982;2023-10-19T03:14:29;7.40;99.90
40077;DHT22;25777;47.824;18.982;2023-10-19T03:16:57;7.50;99.90
40077;DHT22;25777;47.824;18.982;2023-10-19T03:19:25;7.50;99.90
40077;DHT22;25777;47.824;18.982;2023-10-19T03:21:51;7.40;99.90
40077;DHT22;25777;47.824;18.982;2023-10-19T03:24:18;7.50;99.90
40077;DHT22;25777;47.824;18.982;2023-10-19T03:27:08;7.50;99.90
40077;DHT22;25777;47.824;18.982;2023-10-19T03:29:51;7.50;99.90
40077;DHT22;25777;47.824;18.982;2023-10-19T03:32:21;7.40;99.90
40077;DHT22;25777;47.824;18.982;2023-10-19T03:34:52;7.40;99.90
40077;DHT22;25777;47.824;18.982;2023-10-19T03:37:22;7.40;99.90
40077;DHT22;25777;47.824;18.982;2023-10-19T03:39:50;7.40;99.90
40077;DHT22;25777;47.824;18.982;2023-10-19T03:42:17;7.40;99.90
40077;DHT22;25777;47.824;18.982;2023-10-19T03:44:43;7.40;99.90
40077;DHT22;25777;47.824;18.982;2023-10-19T03:47:15;7.40;99.90
40077;DHT22;25777;47.824;18.982;2023-10-19T03:49:45;7.40;99.90
40077;DHT22;25777;47.824;18.982;2023-10-19T03:52:13;7.40;99.90
40077;DHT22;25777;47.824;18.982;2023-10-19T03:54:39;7.40;99.90
40077;DHT22;25777;47.824;18.982;2023-10-19T03:57:05;7.30;99.90
40077;DHT22;25777;47.824;18.982;2023-10-19T03:59:32;7.30;99.90
40077;DHT22;25777;47.824;18.982;2023-10-19T04:02:00;7.30;99.90
40077;DHT22;25777;47.824;18.982;2023-10-19T04:04:32;7.30;99.90
40077;DHT22;25777;47.824;18.982;2023-10-19T04:06:59;7.30;99.90
40077;DHT22;25777;47.824;18.982;2023-10-19T04:09:25;7.40;99.90
40077;DHT22;25777;47.824;18.982;2023-10-19T04:11:57;7.40;99.90
40077;DHT22;25777;47.824;18.982;2023-10-19T04:14:23;7.40;99.90
40077;DHT22;25777;47.824;18.982;2023-10-19T04:16:49;7.30;99.90
40077;DHT22;25777;47.824;18.982;2023-10-19T04:19:15;7.20;99.90
40077;DHT22;25777;47.824;18.982;2023-10-19T04:21:42;7.10;99.90
40077;DHT22;25777;47.824;18.982;2023-10-19T04:24:13;7.10;99.90
40077;DHT22;25777;47.824;18.982;2023-10-19T04:26:40;7.10;99.90
40077;DHT22;25777;47.824;18.982;2023-10-19T04:29:08;7.10;99.90
40077;DHT22;25777;47.824;18.982;2023-10-19T04:31:38;7.20;99.90
40077;DHT22;25777;47.824;18.982;2023-10-19T04:34:14;7.10;99.90
40077;DHT22;25777;47.824;18.982;2023-10-19T04:36:42;7.10;99.90
40077;DHT22;25777;47.824;18.982;2023-10-19T04:39:08;7.00;99.90
40077;DHT22;25777;47.824;18.982;2023-10-19T04:41:39;7.00;99.90
40077;DHT22;25777;47.824;18.982;2023-10-19T04:44:06;7.10;99.90
40077;DHT22;25777;47.824;18.982;2023-10-19T04:46:34;7.00;99.90
40077;DHT22;25777;47.824;18.982;2023-10-19T04:49:00;7.00;99.90
40077;DHT22;25777;47.824;18.982;2023-10-19T04:51:27;7.00;99.90
40077;DHT22;25777;47.824;18.982;2023-10-19T04:53:54;7.00;99.90
40077;DHT22;25777;47.824;18.982;2023-10-19T04:56:21;7.00;99.90
40077;DHT22;25777;47.824;18.982;2023-10-19T04:58:47;7.00;99.90
40077;DHT22;25777;47.824;18.982;2023-10-19T05:01:13;7.00;99.90
40077;DHT22;25777;47.824;18.982;2023-10-19T05:03:40;7.00;99.90
40077;DHT22;25777;47.824;18.982;2023-10-19T05:06:07;7.00;99.90
40077;DHT22;25777;47.824;18.982;2023-10-19T05:08:33;7.00;99.90
40077;DHT22;25777;47.824;18.982;2023-10-19T05:10:59;7.00;99.90
40077;DHT22;25777;47.824;18.982;2023-10-19T05:13:26;7.00;99.90
40077;DHT22;25777;47.824;18.982;2023-10-19T05:15:53;7.00;99.90
40077;DHT22;25777;47.824;18.982;2023-10-19T05:18:20;7.00;99.90
40077;DHT22;25777;47.824;18.982;2023-10-19T05:20:46;7.00;99.90
40077;DHT22;25777;47.824;18.982;2023-10-19T05:23:12;6.90;99.90
40077;DHT22;25777;47.824;18.982;2023-10-19T05:25:40;6.90;99.90
40077;DHT22;25777;47.824;18.982;2023-10-19T05:28:06;6.90;99.90
40077;DHT22;25777;47.824;18.982;2023-10-19T05:30:35;6.80;99.90
40077;DHT22;25777;47.824;18.982;2023-10-19T05:33:01;6.90;99.90
40077;DHT22;25777;47.824;18.982;2023-10-19T05:35:28;6.90;99.90
40077;DHT22;25777;47.824;18.982;2023-10-19T05:37:55;6.90;99.90
40077;DHT22;25777;47.824;18.982;2023-10-19T05:40:23;6.80;99.90
40077;DHT22;25777;47.824;18.982;2023-10-19T05:42:55;6.90;99.90
40077;DHT22;25777;47.824;18.982;2023-10-19T05:45:21;6.90;99.90
40077;DHT22;25777;47.824;18.982;2023-10-19T05:47:46;6.90;99.90
40077;DHT22;25777;47.824;18.982;2023-10-19T05:50:12;6.90;99.90
40077;DHT22;25777;47.824;18.982;2023-10-19T05:52:43;6.90;99.90
40077;DHT22;25777;47.824;18.982;2023-10-19T05:55:10;6.80;99.90
40077;DHT22;25777;47.824;18.982;2023-10-19T05:57:39;6.80;99.90
40077;DHT22;25777;47.824;18.982;2023-10-19T06:00:11;6.80;99.90
40077;DHT22;25777;47.824;18.982;2023-10-19T06:02:46;6.80;99.90
40077;DHT22;25777;47.824;18.982;2023-10-19T06:05:15;6.80;99.90
40077;DHT22;25777;47.824;18.982;2023-10-19T06:07:46;6.90;99.90
40077;DHT22;25777;47.824;18.982;2023-10-19T06:10:14;7.00;99.90
40077;DHT22;25777;47.824;18.982;2023-10-19T06:12:44;6.90;99.90
40077;DHT22;25777;47.824;18.982;2023-10-19T06:15:12;7.00;99.90
40077;DHT22;25777;47.824;18.982;2023-10-19T06:17:41;7.00;99.90
40077;DHT22;25777;47.824;18.982;2023-10-19T06:20:09;7.00;99.90
40077;DHT22;25777;47.824;18.982;2023-10-19T06:22:49;7.00;99.90
40077;DHT22;25777;47.824;18.982;2023-10-19T06:25:17;7.00;99.90
40077;DHT22;25777;47.824;18.982;2023-10-19T06:27:43;6.90;99.90
40077;DHT22;25777;47.824;18.982;2023-10-19T06:30:10;6.90;99.90
40077;DHT22;25777;47.824;18.982;2023-10-19T06:32:36;6.90;99.90
40077;DHT22;25777;47.824;18.982;2023-10-19T06:35:03;7.00;99.90
40077;DHT22;25777;47.824;18.982;2023-10-19T06:37:29;6.90;99.90
40077;DHT22;25777;47.824;18.982;2023-10-19T06:39:55;6.90;99.90
40077;DHT22;25777;47.824;18.982;2023-10-19T06:42:20;7.00;99.90
40077;DHT22;25777;47.824;18.982;2023-10-19T06:44:46;6.90;99.90
40077;DHT22;25777;47.824;18.982;2023-10-19T06:47:12;6.90;99.90
40077;DHT22;25777;47.824;18.982;2023-10-19T06:49:39;6.90;99.90
40077;DHT22;25777;47.824;18.982;2023-10-19T06:52:05;6.90;99.90
40077;DHT22;25777;47.824;18.982;2023-10-19T06:54:31;6.90;99.90
40077;DHT22;25777;47.824;18.982;2023-10-19T06:56:57;6.90;99.90
40077;DHT22;25777;47.824;18.982;2023-10-19T06:59:23;6.90;99.90
40077;DHT22;25777;47.824;18.982;2023-10-19T07:01:50;6.90;99.90
40077;DHT22;25777;47.824;18.982;2023-10-19T07:04:16;6.90;99.90
40077;DHT22;25777;47.824;18.982;2023-10-19T07:06:41;7.00;99.90
40077;DHT22;25777;47.824;18.982;2023-10-19T07:09:07;7.00;99.90
40077;DHT22;25777;47.824;18.982;2023-10-19T07:11:36;7.00;99.90
40077;DHT22;25777;47.824;18.982;2023-10-19T07:14:02;7.00;99.90
40077;DHT22;25777;47.824;18.982;2023-10-19T07:16:29;7.10;99.90
40077;DHT22;25777;47.824;18.982;2023-10-19T07:18:55;7.00;99.90
40077;DHT22;25777;47.824;18.982;2023-10-19T07:21:23;7.00;99.90
40077;DHT22;25777;47.824;18.982;2023-10-19T07:23:49;7.00;99.90
40077;DHT22;25777;47.824;18.982;2023-10-19T07:26:17;7.00;99.90
40077;DHT22;25777;47.824;18.982;2023-10-19T07:28:45;7.00;99.90
40077;DHT22;25777;47.824;18.982;2023-10-19T07:31:11;7.10;99.90
40077;DHT22;25777;47.824;18.982;2023-10-19T07:33:41;7.10;99.90
40077;DHT22;25777;47.824;18.982;2023-10-19T07:36:15;7.10;99.90
40077;DHT22;25777;47.824;18.982;2023-10-19T07:38:41;7.10;99.90
40077;DHT22;25777;47.824;18.982;2023-10-19T07:41:08;7.10;99.90
40077;DHT22;25777;47.824;18.982;2023-10-19T07:43:36;7.20;99.90
40077;DHT22;25777;47.824;18.982;2023-10-19T07:46:02;7.20;99.90
40077;DHT22;25777;47.824;18.982;2023-10-19T07:48:28;7.20;99.90
40077;DHT22;25777;47.824;18.982;2023-10-19T07:50:54;7.20;99.90
40077;DHT22;25777;47.824;18.982;2023-10-19T07:53:20;7.20;99.90
40077;DHT22;25777;47.824;18.982;2023-10-19T07:55:47;7.20;99.90
40077;DHT22;25777;47.824;18.982;2023-10-19T07:58:13;7.20;99.90
40077;DHT22;25777;47.824;18.982;2023-10-19T08:00:39;7.30;99.90
40077;DHT22;25777;47.824;18.982;2023-10-19T08:03:05;7.30;99.90
40077;DHT22;25777;47.824;18.982;2023-10-19T08:05:32;7.30;99.90
40077;DHT22;25777;47.824;18.982;2023-10-19T08:08:02;7.20;99.90
40077;DHT22;25777;47.824;18.982;2023-10-19T08:10:29;7.30;99.90
40077;DHT22;25777;47.824;18.982;2023-10-19T08:12:55;7.30;99.90
40077;DHT22;25777;47.824;18.982;2023-10-19T08:15:21;7.30;99.90
40077;DHT22;25777;47.824;18.982;2023-10-19T08:17:52;7.30;99.90
40077;DHT22;25777;47.824;18.982;2023-10-19T08:20:22;7.30;99.90
40077;DHT22;25777;47.824;18.982;2023-10-19T08:22:57;7.30;99.90
40077;DHT22;25777;47.824;18.982;2023-10-19T08:25:25;7.40;99.90
40077;DHT22;25777;47.824;18.982;2023-10-19T08:27:52;7.40;99.90
40077;DHT22;25777;47.824;18.982;2023-10-19T08:30:22;7.50;99.90
40077;DHT22;25777;47.824;18.982;2023-10-19T08:32:50;7.50;99.90
40077;DHT22;25777;47.824;18.982;2023-10-19T08:35:18;7.50;99.90
40077;DHT22;25777;47.824;18.982;2023-10-19T08:37:50;7.60;99.90
40077;DHT22;25777;47.824;18.982;2023-10-19T08:40:16;7.60;99.90
40077;DHT22;25777;47.824;18.982;2023-10-19T08:42:44;7.60;99.90
40077;DHT22;25777;47.824;18.982;2023-10-19T08:45:14;7.60;99.90
40077;DHT22;25777;47.824;18.982;2023-10-19T08:48:00;7.70;99.90
40077;DHT22;25777;47.824;18.982;2023-10-19T08:50:31;7.70;99.90
40077;DHT22;25777;47.824;18.982;2023-10-19T08:53:04;7.70;99.90
40077;DHT22;25777;47.824;18.982;2023-10-19T08:55:31;7.70;99.90
40077;DHT22;25777;47.824;18.982;2023-10-19T08:57:57;7.70;99.90
40077;DHT22;25777;47.824;18.982;2023-10-19T09:00:27;7.80;99.90
40077;DHT22;25777;47.824;18.982;2023-10-19T09:02:53;7.80;99.90
40077;DHT22;25777;47.824;18.982;2023-10-19T09:05:20;7.80;99.90
40077;DHT22;25777;47.824;18.982;2023-10-19T09:07:49;7.80;99.90
40077;DHT22;25777;47.824;18.982;2023-10-19T09:10:28;7.80;99.90
40077;DHT22;25777;47.824;18.982;2023-10-19T09:13:04;7.80;99.90
40077;DHT22;25777;47.824;18.982;2023-10-19T09:15:33;7.90;99.90
40077;DHT22;25777;47.824;18.982;2023-10-19T09:18:22;7.90;99.90
40077;DHT22;25777;47.824;18.982;2023-10-19T09:20:52;7.90;99.90
40077;DHT22;25777;47.824;18.982;2023-10-19T09:23:23;8.00;99.90
40077;DHT22;25777;47.824;18.982;2023-10-19T09:25:52;8.10;99.90
40077;DHT22;25777;47.824;18.982;2023-10-19T09:28:19;8.20;99.90
40077;DHT22;25777;47.824;18.982;2023-10-19T09:30:46;8.30;99.90
40077;DHT22;25777;47.824;18.982;2023-10-19T09:33:15;8.40;99.90
40077;DHT22;25777;47.824;18.982;2023-10-19T09:35:46;8.50;99.90
40077;DHT22;25777;47.824;18.982;2023-10-19T09:38:17;8.50;99.90
40077;DHT22;25777;47.824;18.982;2023-10-19T09:41:01;8.50;99.90
40077;DHT22;25777;47.824;18.982;2023-10-19T09:43:37;8.50;99.90
40077;DHT22;25777;47.824;18.982;2023-10-19T09:46:09;8.50;99.90
40077;DHT22;25777;47.824;18.982;2023-10-19T09:48:43;8.50;99.90
40077;DHT22;25777;47.824;18.982;2023-10-19T09:51:12;8.50;99.90
40077;DHT22;25777;47.824;18.982;2023-10-19T09:53:39;8.60;99.90
40077;DHT22;25777;47.824;18.982;2023-10-19T09:56:12;8.60;99.90
40077;DHT22;25777;47.824;18.982;2023-10-19T09:58:54;8.60;99.90
40077;DHT22;25777;47.824;18.982;2023-10-19T10:01:21;8.60;99.90
40077;DHT22;25777;47.824;18.982;2023-10-19T10:03:52;8.60;99.90
40077;DHT22;25777;47.824;18.982;2023-10-19T10:09:20;8.70;99.90
40077;DHT22;25777;47.824;18.982;2023-10-19T10:11:50;8.70;99.90
40077;DHT22;25777;47.824;18.982;2023-10-19T10:14:25;8.70;99.90
40077;DHT22;25777;47.824;18.982;2023-10-19T10:17:04;8.70;99.90
40077;DHT22;25777;47.824;18.982;2023-10-19T10:19:31;8.70;99.90
40077;DHT22;25777;47.824;18.982;2023-10-19T10:22:04;8.80;99.90
40077;DHT22;25777;47.824;18.982;2023-10-19T10:24:41;8.80;99.90
40077;DHT22;25777;47.824;18.982;2023-10-19T10:27:07;8.80;99.90
40077;DHT22;25777;47.824;18.982;2023-10-19T10:29:33;8.80;99.90
40077;DHT22;25777;47.824;18.982;2023-10-19T10:31:59;8.80;99.90
40077;DHT22;25777;47.824;18.982;2023-10-19T10:37:11;8.90;99.90
40077;DHT22;25777;47.824;18.982;2023-10-19T10:39:38;8.90;99.90
40077;DHT22;25777;47.824;18.982;2023-10-19T10:42:08;9.00;99.90
40077;DHT22;25777;47.824;18.982;2023-10-19T10:44:39;9.00;99.90
40077;DHT22;25777;47.824;18.982;2023-10-19T10:49:57;9.10;99.90
40077;DHT22;25777;47.824;18.982;2023-10-19T10:52:34;9.20;99.90
40077;DHT22;25777;47.824;18.982;2023-10-19T10:55:11;9.20;99.90
40077;DHT22;25777;47.824;18.982;2023-10-19T10:57:38;9.20;99.90
40077;DHT22;25777;47.824;18.982;2023-10-19T11:00:07;9.20;99.90
40077;DHT22;25777;47.824;18.982;2023-10-19T11:02:36;9.30;99.90
40077;DHT22;25777;47.824;18.982;2023-10-19T11:05:09;9.30;99.90
40077;DHT22;25777;47.824;18.982;2023-10-19T11:07:38;9.30;99.90
40077;DHT22;25777;47.824;18.982;2023-10-19T11:10:04;9.30;99.90
40077;DHT22;25777;47.824;18.982;2023-10-19T11:12:32;9.40;99.90
40077;DHT22;25777;47.824;18.982;2023-10-19T11:14:59;9.30;99.90
40077;DHT22;25777;47.824;18.982;2023-10-19T11:17:25;9.30;99.90
40077;DHT22;25777;47.824;18.982;2023-10-19T11:19:59;9.40;99.90
40077;DHT22;25777;47.824;18.982;2023-10-19T11:22:26;9.30;99.90
40077;DHT22;25777;47.824;18.982;2023-10-19T11:24:55;9.30;99.90
40077;DHT22;25777;47.824;18.982;2023-10-19T11:27:28;9.30;99.90
40077;DHT22;25777;47.824;18.982;2023-10-19T11:32:21;9.10;99.90
40077;DHT22;25777;47.824;18.982;2023-10-19T11:34:54;9.10;99.90
40077;DHT22;25777;47.824;18.982;2023-10-19T11:37:20;9.10;99.90
40077;DHT22;25777;47.824;18.982;2023-10-19T11:39:46;9.10;99.90
40077;DHT22;25777;47.824;18.982;2023-10-19T11:42:12;9.00;99.90
40077;DHT22;25777;47.824;18.982;2023-10-19T11:44:39;9.00;99.90
40077;DHT22;25777;47.824;18.982;2023-10-19T11:47:05;9.10;99.90
40077;DHT22;25777;47.824;18.982;2023-10-19T11:49:31;9.10;99.90
40077;DHT22;25777;47.824;18.982;2023-10-19T11:51:57;9.10;99.90
40077;DHT22;25777;47.824;18.982;2023-10-19T11:54:23;9.10;99.90
40077;DHT22;25777;47.824;18.982;2023-10-19T11:56:49;9.20;99.90
40077;DHT22;25777;47.824;18.982;2023-10-19T11:59:15;9.20;99.90
40077;DHT22;25777;47.824;18.982;2023-10-19T12:01:41;9.20;99.90
40077;DHT22;25777;47.824;18.982;2023-10-19T12:04:08;9.20;99.90
40077;DHT22;25777;47.824;18.982;2023-10-19T12:06:35;9.20;99.90
40077;DHT22;25777;47.824;18.982;2023-10-19T12:09:01;9.20;99.90
40077;DHT22;25777;47.824;18.982;2023-10-19T12:11:43;9.20;99.90
40077;DHT22;25777;47.824;18.982;2023-10-19T12:14:10;9.30;99.90
40077;DHT22;25777;47.824;18.982;2023-10-19T12:16:40;9.30;99.90
40077;DHT22;25777;47.824;18.982;2023-10-19T12:19:06;9.30;99.90
40077;DHT22;25777;47.824;18.982;2023-10-19T12:21:35;9.40;99.90
40077;DHT22;25777;47.824;18.982;2023-10-19T12:24:03;9.40;99.90
40077;DHT22;25777;47.824;18.982;2023-10-19T12:26:30;9.40;99.90
40077;DHT22;25777;47.824;18.982;2023-10-19T12:28:56;9.40;99.90
40077;DHT22;25777;47.824;18.982;2023-10-19T12:31:22;9.50;99.90
40077;DHT22;25777;47.824;18.982;2023-10-19T12:33:49;9.50;99.90
40077;DHT22;25777;47.824;18.982;2023-10-19T12:36:15;9.50;99.90
40077;DHT22;25777;47.824;18.982;2023-10-19T12:38:53;9.50;99.90
40077;DHT22;25777;47.824;18.982;2023-10-19T12:41:23;9.50;99.90
40077;DHT22;25777;47.824;18.982;2023-10-19T12:43:50;9.50;99.90
40077;DHT22;25777;47.824;18.982;2023-10-19T12:46:23;9.50;99.90
40077;DHT22;25777;47.824;18.982;2023-10-19T12:48:55;9.50;99.90
40077;DHT22;25777;47.824;18.982;2023-10-19T12:51:22;9.60;99.90
40077;DHT22;25777;47.824;18.982;2023-10-19T12:53:54;9.60;99.90
40077;DHT22;25777;47.824;18.982;2023-10-19T12:56:21;9.50;99.90
40077;DHT22;25777;47.824;18.982;2023-10-19T12:58:50;9.50;99.90
40077;DHT22;25777;47.824;18.982;2023-10-19T13:01:16;9.50;99.90
40077;DHT22;25777;47.824;18.982;2023-10-19T13:03:43;9.50;99.90
40077;DHT22;25777;47.824;18.982;2023-10-19T13:06:13;9.50;99.90
40077;DHT22;25777;47.824;18.982;2023-10-19T13:08:40;9.50;99.90
40077;DHT22;25777;47.824;18.982;2023-10-19T13:11:09;9.50;99.90
40077;DHT22;25777;47.824;18.982;2023-10-19T13:13:41;9.50;99.90
40077;DHT22;25777;47.824;18.982;2023-10-19T13:16:07;9.50;99.90
40077;DHT22;25777;47.824;18.982;2023-10-19T13:18:35;9.50;99.90
40077;DHT22;25777;47.824;18.982;2023-10-19T13:21:02;9.60;99.90
40077;DHT22;25777;47.824;18.982;2023-10-19T13:23:31;9.60;99.90
40077;DHT22;25777;47.824;18.982;2023-10-19T13:25:59;9.60;99.90
40077;DHT22;25777;47.824;18.982;2023-10-19T13:28:54;9.60;99.90
40077;DHT22;25777;47.824;18.982;2023-10-19T13:31:22;9.60;99.90
40077;DHT22;25777;47.824;18.982;2023-10-19T13:33:48;9.60;99.90
40077;DHT22;25777;47.824;18.982;2023-10-19T13:36:14;9.60;99.90
40077;DHT22;25777;47.824;18.982;2023-10-19T13:38:41;9.60;99.90
40077;DHT22;25777;47.824;18.982;2023-10-19T13:41:08;9.60;99.90
40077;DHT22;25777;47.824;18.982;2023-10-19T13:43:39;9.60;99.90
40077;DHT22;25777;47.824;18.982;2023-10-19T13:46:07;9.70;99.90
40077;DHT22;25777;47.824;18.982;2023-10-19T13:48:33;9.60;99.90
40077;DHT22;25777;47.824;18.982;2023-10-19T13:50:59;9.70;99.90
40077;DHT22;25777;47.824;18.982;2023-10-19T13:53:41;9.70;99.90
40077;DHT22;25777;47.824;18.982;2023-10-19T13:56:08;9.60;99.90
40077;DHT22;25777;47.824;18.982;2023-10-19T13:58:35;9.60;99.90
40077;DHT22;25777;47.824;18.982;2023-10-19T14:01:01;9.60;99.90
40077;DHT22;25777;47.824;18.982;2023-10-19T14:03:28;9.60;99.90
40077;DHT22;25777;47.824;18.982;2023-10-19T14:05:56;9.60;99.90
40077;DHT22;25777;47.824;18.982;2023-10-19T14:08:22;9.50;99.90
40077;DHT22;25777;47.824;18.982;2023-10-19T14:10:48;9.50;99.90
40077;DHT22;25777;47.824;18.982;2023-10-19T14:13:14;9.40;99.90
40077;DHT22;25777;47.824;18.982;2023-10-19T14:15:40;9.50;99.90
40077;DHT22;25777;47.824;18.982;2023-10-19T14:18:08;9.50;99.90
40077;DHT22;25777;47.824;18.982;2023-10-19T14:20:34;9.50;99.90
40077;DHT22;25777;47.824;18.982;2023-10-19T14:23:01;9.50;99.90
40077;DHT22;25777;47.824;18.982;2023-10-19T14:25:28;9.50;99.90
40077;DHT22;25777;47.824;18.982;2023-10-19T14:27:56;9.50;99.90
40077;DHT22;25777;47.824;18.982;2023-10-19T14:30:28;9.50;99.90
40077;DHT22;25777;47.824;18.982;2023-10-19T14:32:54;9.50;99.90
40077;DHT22;25777;47.824;18.982;2023-10-19T14:35:21;9.40;99.90
40077;DHT22;25777;47.824;18.982;2023-10-19T14:37:50;9.40;99.90
40077;DHT22;25777;47.824;18.982;2023-10-19T14:40:21;9.40;99.90
40077;DHT22;25777;47.824;18.982;2023-10-19T14:42:49;9.30;99.90
40077;DHT22;25777;47.824;18.982;2023-10-19T14:45:19;9.30;99.90
40077;DHT22;25777;47.824;18.982;2023-10-19T14:47:50;9.30;99.90
40077;DHT22;25777;47.824;18.982;2023-10-19T14:50:24;9.30;99.90
40077;DHT22;25777;47.824;18.982;2023-10-19T14:52:51;9.30;99.90
40077;DHT22;25777;47.824;18.982;2023-10-19T14:55:18;9.30;99.90
40077;DHT22;25777;47.824;18.982;2023-10-19T14:57:46;9.30;99.90
40077;DHT22;25777;47.824;18.982;2023-10-19T15:00:17;9.30;99.90
40077;DHT22;25777;47.824;18.982;2023-10-19T15:03:04;9.30;99.90
40077;DHT22;25777;47.824;18.982;2023-10-19T15:05:33;9.30;99.90
40077;DHT22;25777;47.824;18.982;2023-10-19T15:08:02;9.30;99.90
40077;DHT22;25777;47.824;18.982;2023-10-19T15:10:30;9.30;99.90
40077;DHT22;25777;47.824;18.982;2023-10-19T15:12:57;9.30;99.90
40077;DHT22;25777;47.824;18.982;2023-10-19T15:15:27;9.30;99.90
40077;DHT22;25777;47.824;18.982;2023-10-19T15:17:53;9.30;99.90
40077;DHT22;25777;47.824;18.982;2023-10-19T15:20:21;9.20;99.90
40077;DHT22;25777;47.824;18.982;2023-10-19T15:22:48;9.20;99.90
40077;DHT22;25777;47.824;18.982;2023-10-19T15:25:14;9.20;99.90
40077;DHT22;25777;47.824;18.982;2023-10-19T15:27:44;9.20;99.90
40077;DHT22;25777;47.824;18.982;2023-10-19T15:30:11;9.20;99.90
40077;DHT22;25777;47.824;18.982;2023-10-19T15:32:40;9.20;99.90
40077;DHT22;25777;47.824;18.982;2023-10-19T15:35:12;9.30;99.90
40077;DHT22;25777;47.824;18.982;2023-10-19T15:37:41;9.30;99.90
40077;DHT22;25777;47.824;18.982;2023-10-19T15:40:08;9.30;99.90
40077;DHT22;25777;47.824;18.982;2023-10-19T15:42:42;9.30;99.90
40077;DHT22;25777;47.824;18.982;2023-10-19T15:45:12;9.40;99.90
40077;DHT22;25777;47.824;18.982;2023-10-19T15:47:41;9.40;99.90
40077;DHT22;25777;47.824;18.982;2023-10-19T15:50:08;9.40;99.90
40077;DHT22;25777;47.824;18.982;2023-10-19T15:52:34;9.40;99.90